Time;durP1;ratioP1;P1;durP2;ratioP2;P2;SDS_P1;SDS_P2;PMS_P1;PMS_P2;Temp;Humidity;BMP_temperature;BMP_pressure;BME280_temperature;BME280_humidity;BME280_pressure;Samples;Min_cycle;Max_cycle;Signal;HPM_P1;HPM_P2
2022/01/08 00:00:51;;;;;;;1.93;0.83;;;28.80;99.90;;;;;;4995242;28;20257;-68
2022/01/08 00:03:19;;;;;;;5.13;0.50;;;29.20;99.90;;;;;;4994961;28;20174;-68
2022/01/08 00:05:48;;;;;;;4.50;0.70;;;29.10;99.90;;;;;;4994908;28;20179;-68
2022/01/08 00:08:16;;;;;;;2.97;0.43;;;29.10;99.90;;;;;;4995392;28;20166;-68
2022/01/08 00:10:44;;;;;;;0.67;0.50;;;29.00;99.90;;;;;;4994942;28;20262;-68
2022/01/08 00:13:12;;;;;;;2.27;0.70;;;29.20;99.90;;;;;;4994808;28;20222;-68
2022/01/08 00:15:39;;;;;;;7.10;0.77;;;29.60;99.90;;;;;;4994699;28;20651;-68
2022/01/08 00:18:07;;;;;;;2.03;0.73;;;30.10;99.90;;;;;;4994711;28;20186;-68
2022/01/08 00:20:35;;;;;;;4.90;0.50;;;29.30;99.90;;;;;;4994536;28;20177;-67
2022/01/08 00:23:04;;;;;;;1.77;0.70;;;29.30;99.90;;;;;;4994641;28;20182;-68
2022/01/08 00:25:31;;;;;;;1.63;0.70;;;28.90;99.90;;;;;;4994472;28;20191;-68
2022/01/08 00:27:59;;;;;;;3.53;0.90;;;29.10;99.90;;;;;;4994555;28;20171;-69
2022/01/08 00:30:28;;;;;;;1.70;0.63;;;29.40;99.90;;;;;;4994467;28;20179;-69
2022/01/08 00:32:56;;;;;;;3.73;0.90;;;30.10;99.90;;;;;;4994473;28;20646;-68
2022/01/08 00:35:24;;;;;;;2.00;0.50;;;30.10;99.90;;;;;;4994166;28;20667;-68
2022/01/08 00:37:51;;;;;;;2.43;0.50;;;30.10;99.90;;;;;;4994619;28;20187;-68
2022/01/08 00:40:19;;;;;;;4.63;0.80;;;29.90;99.90;;;;;;4994374;28;20179;-68
2022/01/08 00:42:47;;;;;;;2.30;0.50;;;29.80;99.90;;;;;;4994886;28;20186;-68
2022/01/08 00:45:15;;;;;;;4.77;0.73;;;29.60;99.90;;;;;;4994289;28;20210;-67
2022/01/08 00:47:42;;;;;;;1.30;0.60;;;29.80;99.90;;;;;;4976636;28;20718;-66
2022/01/08 00:50:12;;;;;;;0.97;0.70;;;30.30;99.90;;;;;;4993991;28;20186;-67
2022/01/08 00:52:43;;;;;;;2.33;0.32;;;31.00;99.90;;;;;;4994673;28;20210;-67
2022/01/08 00:55:12;;;;;;;4.47;0.55;;;31.20;99.90;;;;;;4994099;28;20186;-67
2022/01/08 00:57:41;;;;;;;0.82;0.32;;;31.60;99.90;;;;;;4994234;28;20546;-67
2022/01/08 01:00:11;;;;;;;0.55;0.43;;;31.60;99.90;;;;;;4993898;28;20189;-67
2022/01/08 01:02:40;;;;;;;8.02;0.60;;;31.70;99.90;;;;;;4993798;28;20193;-67
2022/01/08 01:05:09;;;;;;;0.60;0.43;;;31.40;99.90;;;;;;4993337;28;20707;-67
2022/01/08 01:07:37;;;;;;;2.53;0.73;;;31.10;99.90;;;;;;4976463;28;20182;-67
2022/01/08 01:10:07;;;;;;;0.55;0.40;;;30.80;99.90;;;;;;4993783;28;20284;-66
2022/01/08 01:12:35;;;;;;;1.98;0.50;;;30.90;99.90;;;;;;4993815;28;20210;-67
2022/01/08 01:15:04;;;;;;;4.20;0.60;;;31.20;99.90;;;;;;4993851;28;20539;-67
2022/01/08 01:17:31;;;;;;;2.53;0.40;;;31.80;99.90;;;;;;4994318;28;20196;-66
2022/01/08 01:19:59;;;;;;;0.60;0.50;;;31.70;99.90;;;;;;4993665;28;20171;-67
2022/01/08 01:22:37;;;;;;;1.60;0.60;;;31.90;99.90;;;;;;4994028;28;20175;-66
2022/01/08 01:25:07;;;;;;;3.58;0.77;;;32.40;99.90;;;;;;4993959;28;20237;-66
2022/01/08 01:30:24;;;;;;;0.98;0.45;;;33.30;99.90;;;;;;4994082;28;20232;-67
2022/01/08 01:41:22;;;;;;;0.90;0.50;;;33.30;99.90;;;;;;4994246;28;20181;-67
2022/01/08 01:49:07;;;;;;;0.82;0.70;;;33.40;99.90;;;;;;4993761;28;20217;-67
2022/01/08 01:51:36;;;;;;;2.92;0.60;;;33.80;99.90;;;;;;4993382;28;20530;-67
2022/01/08 01:54:04;;;;;;;2.67;0.93;;;34.00;99.90;;;;;;4993575;28;20210;-67
2022/01/08 01:56:32;;;;;;;2.47;0.77;;;34.30;99.90;;;;;;4993290;28;20179;-67
2022/01/08 01:59:00;;;;;;;1.15;0.70;;;34.50;99.90;;;;;;4993463;28;20174;-67
2022/01/08 02:01:28;;;;;;;0.88;0.50;;;34.30;99.90;;;;;;4993459;28;20182;-67
2022/01/08 02:03:56;;;;;;;3.00;0.60;;;34.00;99.90;;;;;;4993481;28;20650;-67
2022/01/08 02:06:24;;;;;;;2.28;0.50;;;34.20;99.90;;;;;;4993217;28;20205;-67
2022/01/08 02:08:51;;;;;;;2.50;0.50;;;34.20;99.90;;;;;;4993465;28;20648;-68
2022/01/08 02:11:20;;;;;;;3.25;0.73;;;34.00;99.90;;;;;;4993303;28;20590;-68
2022/01/08 02:13:48;;;;;;;2.58;0.50;;;33.70;99.90;;;;;;4993211;28;20722;-68
2022/01/08 02:16:17;;;;;;;4.28;0.65;;;33.30;99.90;;;;;;4993162;28;20330;-68
2022/01/08 02:18:46;;;;;;;1.20;0.63;;;33.00;99.90;;;;;;4995962;28;20256;-68
2022/01/08 02:21:15;;;;;;;3.35;0.90;;;32.90;99.90;;;;;;4996777;28;20198;-68
2022/01/08 02:23:44;;;;;;;1.23;0.60;;;33.10;99.90;;;;;;4979273;28;20205;-68
2022/01/08 02:26:12;;;;;;;3.10;0.70;;;33.20;99.90;;;;;;4996528;28;20691;-68
2022/01/08 02:28:41;;;;;;;2.30;0.50;;;33.20;99.90;;;;;;4996555;28;20604;-68
2022/01/08 02:31:23;;;;;;;1.45;0.70;;;33.00;99.90;;;;;;4996759;28;20178;-68
2022/01/08 02:33:53;;;;;;;2.85;0.70;;;33.10;99.90;;;;;;4996731;28;20242;-68
2022/01/08 02:36:21;;;;;;;0.80;0.70;;;33.10;99.90;;;;;;4996275;28;20317;-68
2022/01/08 02:38:50;;;;;;;0.80;0.60;;;33.20;99.90;;;;;;4996667;28;20175;-69
2022/01/08 02:41:18;;;;;;;2.67;0.70;;;33.00;99.90;;;;;;4979086;28;20237;-68
2022/01/08 02:43:52;;;;;;;5.43;0.80;;;33.30;99.90;;;;;;4996410;28;20175;-68
2022/01/08 02:46:23;;;;;;;2.15;0.70;;;33.90;99.90;;;;;;4996101;28;20556;-68
2022/01/08 02:48:51;;;;;;;1.27;1.13;;;34.00;99.90;;;;;;4996486;28;20182;-68
2022/01/08 02:51:19;;;;;;;2.33;0.70;;;34.10;99.90;;;;;;4996401;28;20183;-68
2022/01/08 02:53:46;;;;;;;2.53;1.02;;;34.50;99.90;;;;;;4996103;28;20249;-68
2022/01/08 02:56:14;;;;;;;1.63;0.60;;;34.50;99.90;;;;;;4996382;28;20181;-67
2022/01/08 02:58:42;;;;;;;1.25;0.63;;;34.60;99.90;;;;;;4978511;28;20532;-67
2022/01/08 03:01:09;;;;;;;2.05;0.82;;;34.30;99.90;;;;;;4996171;28;20518;-68
2022/01/08 03:03:37;;;;;;;3.85;0.85;;;34.80;99.90;;;;;;4996088;28;20175;-67
2022/01/08 03:06:05;;;;;;;2.15;0.60;;;34.70;99.90;;;;;;4995958;28;20175;-68
2022/01/08 03:08:33;;;;;;;1.52;0.70;;;35.20;99.90;;;;;;4996016;28;20174;-68
2022/01/08 03:11:00;;;;;;;2.40;0.75;;;34.90;99.90;;;;;;4978640;28;20178;-68
2022/01/08 03:13:28;;;;;;;1.05;0.63;;;34.60;99.90;;;;;;4995976;28;20234;-67
2022/01/08 03:15:56;;;;;;;1.05;0.73;;;35.00;99.90;;;;;;4995728;28;20171;-68
2022/01/08 03:18:23;;;;;;;3.20;0.90;;;35.10;99.90;;;;;;4996328;28;20589;-68
2022/01/08 03:21:01;;;;;;;4.10;0.75;;;35.40;99.90;;;;;;4996190;28;20265;-68
2022/01/08 03:23:43;;;;;;;1.40;0.68;;;35.00;99.90;;;;;;4996075;28;20644;-67
2022/01/08 03:26:11;;;;;;;2.63;0.95;;;34.30;99.90;;;;;;4996226;28;20530;-67
2022/01/08 03:28:39;;;;;;;2.60;0.68;;;34.30;99.90;;;;;;4977814;28;20179;-67
2022/01/08 03:31:07;;;;;;;1.52;0.60;;;34.40;99.90;;;;;;4995795;28;20261;-68
2022/01/08 03:33:35;;;;;;;2.95;0.90;;;34.50;99.90;;;;;;4978094;28;20589;-67
2022/01/08 03:36:03;;;;;;;2.58;1.00;;;34.60;99.90;;;;;;4995398;28;20265;-68
2022/01/08 03:38:31;;;;;;;1.65;0.70;;;34.70;99.90;;;;;;4995547;28;20195;-68
2022/01/08 03:40:59;;;;;;;1.42;0.60;;;35.20;99.90;;;;;;4995568;28;20632;-68
2022/01/08 03:43:27;;;;;;;1.10;0.73;;;34.60;99.90;;;;;;4995756;28;20182;-67
2022/01/08 03:45:55;;;;;;;3.00;0.88;;;34.00;99.90;;;;;;4995299;28;20179;-68
2022/01/08 03:48:44;;;;;;;1.75;0.75;;;34.70;99.90;;;;;;4995370;28;20250;-68
2022/01/08 03:51:13;;;;;;;2.03;0.90;;;35.40;99.90;;;;;;4995492;28;20186;-68
2022/01/08 03:53:41;;;;;;;1.38;0.85;;;35.50;99.90;;;;;;4995138;28;20242;-67
2022/01/08 03:56:09;;;;;;;2.35;0.80;;;35.80;99.90;;;;;;4977733;28;20187;-67
2022/01/08 03:58:37;;;;;;;2.15;0.80;;;36.10;99.90;;;;;;4995388;28;20544;-67
2022/01/08 04:01:05;;;;;;;0.88;0.80;;;35.90;99.90;;;;;;4977722;28;20242;-67
2022/01/08 04:03:33;;;;;;;2.20;1.17;;;36.10;99.90;;;;;;4995106;28;20558;-68
2022/01/08 04:06:01;;;;;;;3.58;0.77;;;36.10;99.90;;;;;;4994763;28;20257;-68
2022/01/08 04:08:29;;;;;;;2.05;0.65;;;35.70;99.90;;;;;;4995046;28;20675;-67
2022/01/08 04:10:56;;;;;;;0.98;0.63;;;35.80;99.90;;;;;;4994959;28;20229;-68
2022/01/08 04:13:28;;;;;;;2.15;0.50;;;36.10;99.90;;;;;;4995060;28;20305;-68
2022/01/08 04:16:09;;;;;;;2.63;0.73;;;35.90;99.90;;;;;;4994803;28;20181;-67
2022/01/08 04:18:36;;;;;;;2.35;0.90;;;36.30;99.90;;;;;;4994886;28;20656;-68
2022/01/08 04:21:35;;;;;;;3.00;1.02;;;36.10;99.90;;;;;;4994841;28;20178;-68
2022/01/08 04:23:56;;;;;;;2.35;0.90;;;36.20;99.90;;;;;;4995245;28;20277;-67
2022/01/08 04:26:25;;;;;;;1.85;0.70;;;35.90;99.90;;;;;;4994549;28;20205;-67
2022/01/08 04:28:54;;;;;;;3.35;0.75;;;34.60;99.90;;;;;;4994689;28;20651;-67
2022/01/08 04:31:25;;;;;;;2.03;1.08;;;33.80;99.90;;;;;;4977195;28;20186;-67
2022/01/08 04:33:53;;;;;;;2.40;1.00;;;33.10;99.90;;;;;;4994413;28;20264;-67
2022/01/08 04:36:21;;;;;;;7.15;1.67;;;32.70;99.90;;;;;;4994217;28;20222;-67
2022/01/08 04:38:49;;;;;;;2.38;1.38;;;32.50;99.90;;;;;;4994700;28;20178;-66
2022/01/08 04:41:17;;;;;;;4.80;1.23;;;32.10;99.90;;;;;;4976540;28;20178;-67
2022/01/08 04:43:45;;;;;;;1.00;0.70;;;32.10;99.90;;;;;;4994635;28;20189;-66
2022/01/08 04:46:13;;;;;;;2.92;1.15;;;32.70;99.90;;;;;;4976881;28;20191;-67
2022/01/08 04:48:42;;;;;;;3.83;1.35;;;33.00;99.90;;;;;;4994418;28;20241;-67
2022/01/08 04:51:10;;;;;;;2.70;1.13;;;33.40;99.90;;;;;;4994471;28;20181;-67
2022/01/08 04:53:38;;;;;;;1.98;0.80;;;33.50;99.90;;;;;;4994205;28;20573;-67
2022/01/08 04:56:06;;;;;;;1.02;0.82;;;33.40;99.90;;;;;;4994133;28;20262;-67
2022/01/08 04:58:33;;;;;;;5.45;0.90;;;33.40;99.90;;;;;;4994239;28;20179;-67
2022/01/08 05:01:01;;;;;;;3.50;1.08;;;33.70;99.90;;;;;;4994187;28;20213;-67
2022/01/08 05:03:29;;;;;;;3.13;1.00;;;33.30;99.90;;;;;;4993996;28;20252;-67
2022/01/08 05:05:56;;;;;;;2.63;1.02;;;33.30;99.90;;;;;;4976414;28;20179;-67
2022/01/08 05:08:24;;;;;;;1.50;0.80;;;33.40;99.90;;;;;;4994011;28;20630;-67
2022/01/08 05:10:52;;;;;;;1.65;0.93;;;33.40;99.90;;;;;;4994016;28;20175;-67
2022/01/08 05:13:19;;;;;;;2.85;0.98;;;34.00;99.90;;;;;;4993897;28;20217;-66
2022/01/08 05:15:47;;;;;;;4.10;0.90;;;33.30;99.90;;;;;;4993945;28;20182;-67
2022/01/08 05:18:15;;;;;;;0.73;0.65;;;33.20;99.90;;;;;;4993844;28;20237;-67
2022/01/08 05:20:51;;;;;;;1.17;0.70;;;33.00;99.90;;;;;;4993690;28;20636;-68
2022/01/08 05:23:19;;;;;;;3.67;0.77;;;32.80;99.90;;;;;;4993865;28;20181;-67
2022/01/08 05:25:46;;;;;;;1.80;0.90;;;32.80;99.90;;;;;;4993901;28;20239;-67
2022/01/08 05:28:13;;;;;;;1.33;0.85;;;32.70;99.90;;;;;;4994288;28;20171;-67
2022/01/08 05:30:41;;;;;;;1.50;0.98;;;32.90;99.90;;;;;;4994040;28;20261;-66
2022/01/08 05:33:08;;;;;;;5.63;0.80;;;33.30;99.90;;;;;;4993730;28;20221;-68
2022/01/08 05:35:35;;;;;;;1.73;0.85;;;33.10;99.90;;;;;;4993324;28;20233;-68
2022/01/08 05:38:03;;;;;;;1.75;0.70;;;33.10;99.90;;;;;;4993845;28;20621;-68
2022/01/08 05:40:30;;;;;;;2.75;0.77;;;31.90;99.90;;;;;;4993624;28;20658;-67
2022/01/08 05:42:58;;;;;;;1.27;0.85;;;31.50;99.90;;;;;;4993645;28;20210;-67
2022/01/08 05:45:25;;;;;;;2.17;0.77;;;31.40;99.90;;;;;;4993751;28;20262;-68
2022/01/08 05:47:52;;;;;;;3.87;1.10;;;31.50;99.90;;;;;;4976148;28;20190;-68
2022/01/08 05:50:20;;;;;;;3.22;0.80;;;31.60;99.90;;;;;;4976635;28;20190;-68
2022/01/08 05:52:48;;;;;;;0.90;0.80;;;31.30;99.90;;;;;;4996621;28;20238;-67
2022/01/08 05:55:17;;;;;;;1.13;0.80;;;30.30;99.90;;;;;;4980252;28;20186;-68
2022/01/08 05:57:45;;;;;;;13.13;0.93;;;29.80;99.90;;;;;;4997499;28;20195;-68
2022/01/08 06:00:13;;;;;;;2.50;1.20;;;29.30;99.90;;;;;;4997347;28;20262;-68
2022/01/08 06:02:40;;;;;;;2.27;0.80;;;29.10;99.90;;;;;;4997359;28;20237;-68
2022/01/08 06:05:08;;;;;;;2.33;0.70;;;28.90;99.90;;;;;;4997372;28;20183;-68
2022/01/08 06:07:36;;;;;;;4.23;1.20;;;28.70;99.90;;;;;;4997280;28;20232;-68
2022/01/08 06:10:05;;;;;;;1.30;0.70;;;28.50;99.90;;;;;;4997405;28;20186;-68
2022/01/08 06:12:32;;;;;;;4.20;1.50;;;28.40;99.90;;;;;;4997403;28;20636;-67
2022/01/08 06:15:00;;;;;;;1.57;1.03;;;28.20;99.90;;;;;;4997161;28;20241;-68
2022/01/08 06:17:27;;;;;;;3.07;1.20;;;28.20;99.90;;;;;;4997260;28;20186;-68
2022/01/08 06:19:54;;;;;;;4.37;1.10;;;28.20;99.90;;;;;;4979848;28;20190;-68
2022/01/08 06:22:22;;;;;;;3.90;1.20;;;27.90;99.90;;;;;;4997675;28;20175;-67
2022/01/08 06:24:49;;;;;;;3.13;1.10;;;27.80;99.90;;;;;;4997037;28;20182;-67
2022/01/08 06:27:17;;;;;;;2.43;1.33;;;27.70;99.90;;;;;;4996973;28;20530;-67
2022/01/08 06:29:44;;;;;;;1.93;1.23;;;27.50;99.90;;;;;;4979446;28;20187;-67
2022/01/08 06:32:14;;;;;;;2.43;1.40;;;27.40;99.90;;;;;;4979166;28;20198;-68
2022/01/08 06:34:42;;;;;;;4.60;2.10;;;27.10;99.90;;;;;;4996798;28;20663;-68
2022/01/08 06:37:10;;;;;;;13.57;3.37;;;26.90;99.90;;;;;;4996583;28;20248;-68
2022/01/08 06:39:37;;;;;;;8.43;2.87;;;26.30;99.90;;;;;;4979236;28;20535;-69
2022/01/08 06:42:05;;;;;;;9.30;2.80;;;25.60;99.90;;;;;;4996759;28;20614;-69
2022/01/08 06:44:32;;;;;;;6.53;2.17;;;24.90;99.90;;;;;;4996551;28;20189;-69
2022/01/08 06:47:00;;;;;;;4.93;2.07;;;24.50;99.90;;;;;;4978718;28;20182;-68
2022/01/08 06:49:27;;;;;;;5.07;1.87;;;24.20;99.90;;;;;;4996599;28;20188;-69
2022/01/08 06:51:54;;;;;;;5.17;1.80;;;24.10;99.90;;;;;;4996504;28;20206;-68
2022/01/08 06:54:22;;;;;;;4.57;1.70;;;24.10;99.90;;;;;;4996293;28;20210;-69
2022/01/08 06:56:52;;;;;;;5.23;1.87;;;24.10;99.90;;;;;;4996302;28;20593;-69
2022/01/08 06:59:19;;;;;;;4.73;1.83;;;24.10;99.90;;;;;;4996385;28;20175;-68
2022/01/08 07:01:47;;;;;;;2.73;1.83;;;24.10;99.90;;;;;;4996279;28;20217;-68
2022/01/08 07:04:14;;;;;;;4.43;1.47;;;24.20;99.90;;;;;;4995316;28;20194;-67
2022/01/08 07:06:41;;;;;;;3.63;1.30;;;24.40;99.90;;;;;;4995877;28;20186;-68
2022/01/08 07:09:09;;;;;;;6.97;2.00;;;24.40;99.90;;;;;;4996083;28;20174;-68
2022/01/08 07:11:36;;;;;;;1.80;1.43;;;24.50;99.90;;;;;;4996265;28;20182;-69
2022/01/08 07:14:04;;;;;;;5.67;1.80;;;24.60;99.90;;;;;;4996375;28;20292;-69
2022/01/08 07:16:31;;;;;;;3.33;1.37;;;24.60;99.90;;;;;;4978650;28;20190;-67
2022/01/08 07:18:58;;;;;;;4.40;1.40;;;24.70;99.90;;;;;;4996069;28;20558;-68
2022/01/08 07:21:26;;;;;;;5.13;1.40;;;24.80;99.90;;;;;;4995971;28;20183;-69
2022/01/08 07:23:53;;;;;;;2.47;1.10;;;24.70;99.90;;;;;;4995925;28;20178;-67
2022/01/08 07:26:21;;;;;;;1.70;1.00;;;24.80;99.90;;;;;;4995788;28;20273;-68
2022/01/08 07:28:48;;;;;;;4.27;1.50;;;24.60;99.90;;;;;;4978412;28;20192;-68
2022/01/08 07:31:16;;;;;;;4.57;1.50;;;24.50;99.90;;;;;;4995977;28;20170;-67
2022/01/08 07:33:43;;;;;;;2.80;1.30;;;24.60;99.90;;;;;;4995790;28;20207;-67
2022/01/08 07:36:11;;;;;;;2.60;1.53;;;24.60;99.90;;;;;;4978220;28;20227;-67
2022/01/08 07:38:38;;;;;;;6.17;1.40;;;24.70;99.90;;;;;;4995760;28;20265;-67
2022/01/08 07:41:05;;;;;;;2.93;1.47;;;25.20;99.90;;;;;;4995652;28;20178;-67
2022/01/08 07:43:33;;;;;;;4.30;1.30;;;25.60;99.90;;;;;;4995696;28;20178;-69
2022/01/08 07:46:00;;;;;;;2.40;1.43;;;26.00;99.90;;;;;;4977801;28;20269;-67
2022/01/08 07:48:27;;;;;;;5.37;1.40;;;26.40;99.90;;;;;;4995533;28;20178;-67
2022/01/08 07:50:55;;;;;;;3.70;1.60;;;26.50;99.90;;;;;;4995477;28;20186;-68
2022/01/08 07:53:22;;;;;;;5.20;1.60;;;26.80;99.90;;;;;;4977808;28;20244;-66
2022/01/08 07:55:50;;;;;;;2.70;1.20;;;26.90;99.90;;;;;;4995487;28;20178;-67
2022/01/08 07:58:21;;;;;;;3.40;1.50;;;26.60;99.90;;;;;;4995445;28;20185;-67
2022/01/08 08:00:53;;;;;;;3.03;1.43;;;26.70;99.90;;;;;;4977761;28;20182;-67
2022/01/08 08:03:21;;;;;;;4.30;1.30;;;26.60;99.90;;;;;;4995161;28;20174;-68
2022/01/08 08:05:48;;;;;;;2.80;1.60;;;26.30;99.90;;;;;;4995006;28;20189;-68
2022/01/08 08:08:22;;;;;;;3.17;1.57;;;25.90;99.90;;;;;;4995027;28;20213;-68
2022/01/08 08:10:50;;;;;;;4.07;1.67;;;25.70;99.90;;;;;;4995252;28;20171;-66
2022/01/08 08:13:19;;;;;;;2.60;1.50;;;25.30;99.90;;;;;;4995074;28;20342;-66
2022/01/08 08:15:47;;;;;;;1.53;1.23;;;25.10;99.90;;;;;;4993771;28;20170;-67
2022/01/08 08:18:14;;;;;;;2.70;1.40;;;24.90;99.90;;;;;;4994898;28;20277;-68
2022/01/08 08:20:42;;;;;;;4.40;1.50;;;24.90;99.90;;;;;;4994806;28;20210;-68
2022/01/08 08:23:10;;;;;;;2.70;1.30;;;24.90;99.90;;;;;;4994979;28;20702;-69
2022/01/08 08:25:38;;;;;;;4.00;1.50;;;24.80;99.90;;;;;;4994711;28;20305;-68
2022/01/08 08:28:07;;;;;;;4.33;1.40;;;24.70;99.90;;;;;;4994696;28;20186;-69
2022/01/08 08:30:35;;;;;;;2.53;1.57;;;24.60;99.90;;;;;;4995129;28;20178;-66
2022/01/08 08:33:03;;;;;;;2.33;1.40;;;24.60;99.90;;;;;;4994498;28;20211;-66
2022/01/08 08:35:30;;;;;;;3.70;1.53;;;24.50;99.90;;;;;;4994517;28;20245;-68
2022/01/08 08:37:58;;;;;;;3.00;1.40;;;24.60;99.90;;;;;;4994594;28;20309;-66
2022/01/08 08:40:25;;;;;;;6.60;1.43;;;24.50;99.90;;;;;;4994940;28;20179;-67
2022/01/08 08:42:53;;;;;;;2.77;1.50;;;24.50;99.90;;;;;;4994419;28;20230;-68
2022/01/08 08:45:21;;;;;;;4.00;1.40;;;24.40;99.90;;;;;;4994621;28;20185;-67
2022/01/08 08:47:49;;;;;;;4.03;1.50;;;24.30;99.90;;;;;;4994170;28;20197;-68
2022/01/08 08:50:18;;;;;;;2.33;1.50;;;24.40;99.90;;;;;;4994347;28;20636;-65
2022/01/08 08:52:46;;;;;;;3.90;1.50;;;24.40;99.90;;;;;;4993945;28;20702;-66
2022/01/08 08:55:14;;;;;;;3.63;1.40;;;24.30;99.90;;;;;;4994342;28;20221;-67
2022/01/08 08:57:42;;;;;;;3.47;1.10;;;24.30;99.90;;;;;;4994236;28;20185;-68
2022/01/08 09:00:10;;;;;;;2.40;1.20;;;24.20;99.90;;;;;;4994207;28;20189;-68
2022/01/08 09:02:38;;;;;;;5.43;1.20;;;24.10;99.90;;;;;;4976609;28;20189;-68
2022/01/08 09:05:06;;;;;;;2.93;1.13;;;24.10;99.90;;;;;;4994294;28;20185;-68
2022/01/08 09:07:34;;;;;;;3.00;1.07;;;24.00;99.90;;;;;;4993772;28;20265;-68
2022/01/08 09:10:06;;;;;;;2.03;1.07;;;24.10;99.90;;;;;;4994023;28;20178;-68
2022/01/08 09:12:34;;;;;;;3.20;1.27;;;24.00;99.90;;;;;;4993838;28;20222;-68
2022/01/08 09:15:01;;;;;;;3.67;1.47;;;24.00;99.90;;;;;;4993820;28;20195;-68
2022/01/08 09:17:29;;;;;;;5.90;1.30;;;23.90;99.90;;;;;;4993058;28;20218;-71
2022/01/08 09:19:56;;;;;;;3.70;1.00;;;23.90;99.90;;;;;;4992358;28;20245;-69
2022/01/08 09:22:24;;;;;;;2.73;1.00;;;23.80;99.90;;;;;;4975342;28;20183;-68
2022/01/08 09:24:53;;;;;;;1.83;0.93;;;23.80;99.90;;;;;;4992637;28;20227;-66
2022/01/08 09:27:21;;;;;;;2.83;0.90;;;23.70;99.90;;;;;;4975419;28;20196;-66
2022/01/08 09:29:49;;;;;;;3.67;1.13;;;23.60;99.90;;;;;;4993528;28;20198;-66
2022/01/08 09:32:17;;;;;;;5.97;1.20;;;23.70;99.90;;;;;;4993869;28;20201;-67
2022/01/08 09:34:45;;;;;;;3.50;1.20;;;23.60;99.90;;;;;;4993740;28;20204;-67
2022/01/08 09:37:13;;;;;;;3.80;1.17;;;23.40;99.90;;;;;;4993308;28;20239;-66
2022/01/08 09:39:41;;;;;;;4.90;1.10;;;23.30;99.90;;;;;;4993528;28;20605;-66
2022/01/08 09:42:08;;;;;;;3.50;1.10;;;23.30;99.90;;;;;;4993708;28;20185;-66
2022/01/08 09:44:39;;;;;;;4.37;1.33;;;23.30;99.90;;;;;;4992956;28;20186;-69
2022/01/08 09:47:07;;;;;;;5.10;0.93;;;23.30;99.90;;;;;;4993523;28;20177;-67
2022/01/08 09:49:35;;;;;;;3.10;0.90;;;23.30;99.90;;;;;;4993567;28;20199;-66
2022/01/08 09:52:03;;;;;;;5.40;1.10;;;23.20;99.90;;;;;;4993176;28;20591;-66
2022/01/08 09:54:32;;;;;;;4.10;0.83;;;23.20;99.90;;;;;;4993346;28;20212;-65
2022/01/08 09:57:00;;;;;;;2.50;0.93;;;23.10;99.90;;;;;;4993521;28;20186;-66
2022/01/08 09:59:28;;;;;;;3.60;0.87;;;23.10;99.90;;;;;;4994338;28;20292;-66
2022/01/08 10:01:58;;;;;;;8.70;0.97;;;23.10;99.90;;;;;;4993910;28;20591;-67
2022/01/08 10:04:28;;;;;;;3.93;1.20;;;23.10;99.90;;;;;;4994510;28;20181;-68
2022/01/08 10:07:14;;;;;;;7.50;1.40;;;23.20;99.90;;;;;;4993768;28;20182;-67
2022/01/08 10:10:15;;;;;;;3.93;1.30;;;23.20;99.90;;;;;;4994243;28;20200;-66
2022/01/08 10:12:53;;;;;;;9.23;1.30;;;23.20;99.90;;;;;;4993904;28;20204;-68
2022/01/08 10:18:40;;;;;;;8.40;1.43;;;23.20;99.90;;;;;;4993993;28;20588;-65
2022/01/08 10:21:26;;;;;;;4.30;1.40;;;23.20;99.90;;;;;;4993302;28;20177;-66
2022/01/08 10:24:08;;;;;;;5.13;1.40;;;23.20;99.90;;;;;;4993240;28;20186;-66
2022/01/08 10:26:41;;;;;;;3.20;1.00;;;23.20;99.90;;;;;;4992717;28;20190;-66
2022/01/08 10:29:13;;;;;;;6.30;1.07;;;23.10;99.90;;;;;;4993061;28;20194;-66
2022/01/08 10:31:46;;;;;;;4.73;1.47;;;23.10;99.90;;;;;;4993375;28;20185;-65
2022/01/08 10:34:17;;;;;;;8.00;1.47;;;23.10;99.90;;;;;;4975623;28;20228;-65
2022/01/08 10:37:08;;;;;;;7.43;1.40;;;23.10;99.90;;;;;;4993018;28;20237;-66
2022/01/08 10:39:43;;;;;;;7.17;1.50;;;23.10;99.90;;;;;;4995722;28;20213;-65
2022/01/08 10:42:16;;;;;;;6.10;1.50;;;23.20;99.90;;;;;;4996612;28;20181;-65
2022/01/08 10:44:49;;;;;;;4.37;1.80;;;23.20;99.90;;;;;;4996622;28;20186;-65
2022/01/08 10:47:19;;;;;;;4.43;1.60;;;23.20;99.90;;;;;;4996234;28;20663;-66
2022/01/08 10:50:02;;;;;;;4.60;1.50;;;23.20;99.90;;;;;;4996271;28;20229;-66
2022/01/08 10:52:41;;;;;;;5.80;1.70;;;23.10;99.90;;;;;;4996891;28;20701;-66
2022/01/08 10:55:08;;;;;;;7.30;2.00;;;23.00;99.90;;;;;;4996612;28;20674;-69
2022/01/08 10:57:39;;;;;;;6.47;2.00;;;23.00;99.90;;;;;;4997031;28;20640;-67
2022/01/08 11:00:13;;;;;;;11.40;2.40;;;23.00;99.90;;;;;;4978998;28;20663;-66
2022/01/08 11:02:42;;;;;;;7.47;2.00;;;23.00;99.90;;;;;;4996683;28;20182;-67
2022/01/08 11:05:10;;;;;;;6.80;1.90;;;23.00;99.90;;;;;;4978916;28;20188;-64
2022/01/08 11:07:42;;;;;;;8.73;2.00;;;23.00;99.90;;;;;;4978995;28;20190;-66
2022/01/08 11:10:20;;;;;;;8.70;1.83;;;23.00;99.90;;;;;;4996619;28;20193;-70
2022/01/08 11:12:51;;;;;;;6.87;2.30;;;22.90;99.90;;;;;;4963588;28;20227;-65
2022/01/08 11:15:34;;;;;;;5.87;1.97;;;22.90;99.90;;;;;;4979708;28;20188;-66
2022/01/08 11:18:03;;;;;;;11.10;2.40;;;22.80;99.90;;;;;;4996215;28;20185;-67
2022/01/08 11:20:33;;;;;;;5.63;1.97;;;22.80;99.90;;;;;;4996682;28;20262;-68
2022/01/08 11:23:03;;;;;;;9.50;2.13;;;22.80;99.90;;;;;;4996172;28;20552;-66
2022/01/08 11:25:35;;;;;;;6.03;1.70;;;22.80;99.90;;;;;;4978524;28;20193;-66
2022/01/08 11:28:05;;;;;;;13.40;2.77;;;22.90;99.90;;;;;;4978743;28;20586;-67
2022/01/08 11:30:39;;;;;;;7.93;2.00;;;22.90;99.90;;;;;;4962961;28;20195;-66
2022/01/08 11:33:15;;;;;;;5.57;2.20;;;23.00;99.90;;;;;;4978632;28;20252;-68
2022/01/08 11:35:44;;;;;;;10.40;2.30;;;23.10;99.90;;;;;;4978225;28;20311;-67
2022/01/08 11:38:14;;;;;;;6.07;2.30;;;23.10;99.90;;;;;;4996004;28;20187;-66
2022/01/08 11:40:47;;;;;;;8.53;2.10;;;23.20;99.90;;;;;;4978169;28;20717;-66
2022/01/08 11:43:17;;;;;;;6.43;2.13;;;23.20;99.90;;;;;;4977348;28;20197;-69
2022/01/08 11:45:48;;;;;;;5.83;2.30;;;23.20;99.90;;;;;;4977903;28;20197;-68
2022/01/08 11:48:20;;;;;;;12.57;2.70;;;23.20;99.90;;;;;;4978230;28;20190;-65
2022/01/08 11:50:55;;;;;;;9.67;2.33;;;23.30;99.90;;;;;;4962092;28;20182;-66
2022/01/08 11:53:28;;;;;;;9.73;2.47;;;23.20;99.90;;;;;;4995099;28;20229;-65
2022/01/08 11:56:01;;;;;;;12.20;2.80;;;23.20;99.90;;;;;;4977908;28;20233;-66
2022/01/08 11:58:30;;;;;;;7.10;2.90;;;23.30;99.90;;;;;;4995160;28;20190;-65
2022/01/08 12:01:01;;;;;;;6.77;2.80;;;23.30;99.90;;;;;;4994907;28;20190;-66
2022/01/08 12:03:37;;;;;;;12.47;3.43;;;23.30;99.90;;;;;;4995174;28;20182;-66
2022/01/08 12:06:23;;;;;;;6.27;2.47;;;23.30;99.90;;;;;;4977275;28;20182;-66
2022/01/08 12:11:48;;;;;;;9.27;3.20;;;23.30;99.90;;;;;;4995564;28;20178;-67
2022/01/08 12:14:27;;;;;;;12.10;3.20;;;23.20;99.90;;;;;;4994999;28;20228;-71
2022/01/08 12:17:14;;;;;;;9.60;2.97;;;23.20;99.90;;;;;;4995262;28;20551;-69
2022/01/08 12:19:54;;;;;;;7.43;2.50;;;23.20;99.90;;;;;;4994864;28;20565;-70
2022/01/08 12:22:22;;;;;;;7.67;3.13;;;23.20;99.90;;;;;;4994945;28;20176;-70
2022/01/08 12:24:51;;;;;;;13.60;3.23;;;23.20;99.90;;;;;;4994304;28;20190;-70
2022/01/08 12:27:38;;;;;;;11.10;3.33;;;23.20;99.90;;;;;;4994469;28;20205;-71
2022/01/08 12:30:21;;;;;;;10.33;3.23;;;23.30;99.90;;;;;;4994612;28;20764;-70
2022/01/08 12:32:52;;;;;;;8.17;3.40;;;23.30;99.90;;;;;;4993992;28;20609;-70
2022/01/08 12:35:23;;;;;;;10.80;4.03;;;23.20;99.90;;;;;;4993897;28;20620;-71
2022/01/08 12:37:53;;;;;;;10.13;3.30;;;23.30;99.90;;;;;;4977029;28;20572;-71
2022/01/08 12:40:45;;;;;;;12.57;3.30;;;23.30;99.90;;;;;;4994535;28;20186;-71
2022/01/08 12:43:18;;;;;;;11.50;3.60;;;23.20;99.90;;;;;;4994559;28;20189;-70
2022/01/08 12:45:48;;;;;;;11.60;4.27;;;23.20;99.90;;;;;;4994152;28;20244;-70
2022/01/08 12:48:16;;;;;;;9.93;3.23;;;23.20;99.90;;;;;;4994345;28;20209;-69
2022/01/08 12:50:46;;;;;;;8.90;3.83;;;23.10;99.90;;;;;;4994565;28;20168;-71
2022/01/08 12:53:25;;;;;;;12.13;3.93;;;23.10;99.90;;;;;;4994111;28;20312;-69
2022/01/08 12:55:55;;;;;;;17.57;4.17;;;23.10;99.90;;;;;;4976816;28;20187;-70
2022/01/08 12:58:25;;;;;;;13.70;3.70;;;23.10;99.90;;;;;;4994382;28;20261;-69
2022/01/08 13:00:57;;;;;;;12.50;3.40;;;23.00;99.90;;;;;;4993669;28;20178;-70
2022/01/08 13:03:26;;;;;;;10.60;3.57;;;23.10;99.90;;;;;;4994613;28;20566;-70
2022/01/08 13:05:54;;;;;;;13.50;3.53;;;23.00;99.90;;;;;;4994062;28;20747;-70
2022/01/08 13:08:30;;;;;;;11.50;3.63;;;23.00;99.90;;;;;;4994140;28;20178;-70
2022/01/08 13:11:02;;;;;;;16.00;4.10;;;22.90;99.90;;;;;;4993652;28;20188;-71
2022/01/08 13:13:57;;;;;;;16.03;3.73;;;22.90;99.90;;;;;;4994518;28;20229;-72
2022/01/08 13:16:37;;;;;;;17.10;4.47;;;22.90;99.90;;;;;;4993989;28;20188;-71
2022/01/08 13:19:10;;;;;;;11.20;3.87;;;22.90;99.90;;;;;;4994116;28;20210;-67
2022/01/08 13:21:46;;;;;;;21.73;4.23;;;22.90;99.90;;;;;;4976180;28;20696;-73